Akron, New York
Current Conditions -  °F | °C
As of 10:54 PM on Wednesday 28 Jan 2015 (Local Time) from KBUF Reporting Station
Few Clouds Few Clouds  
Wind Chill: -16°   Ceiling: Unl
Heat Index: -11°   Visibility: 10mi
Dew Point: -14°   Wind: 6mph
Humidity: 77%   Direction: 170°S
Pressure: 30.28"   Gusts: NA
Location:  43.02°N, 78.5°W
Report Text: KBUF 290354Z 17005KT 10SM FEW180 M11/M14 A3028 RMK AO2 SLP267 T11061139
Loading
Personal Weather Stations






























Interactive Weather Map New forecast layout! Learn more

10-Day Weather Forecast

Advertisements
Track Severe Weather on mobile